Laud, Indiana
Current Conditions -  °F | °C
As of 7:54 PM on Saturday 20 Dec 2014 (Local Time) from KFWA Reporting Station
Haze Haze  
Wind Chill: 31°   Ceiling: 3100
Heat Index: 31°   Visibility: 6mi
Dew Point: 27°   Wind: 3mph
Humidity: 85%   Direction: 260°W
Pressure: 30.3"   Gusts: NA
Location:  41.1479°N, 85.4772°W
Report Text: KFWA 210054Z 26003KT 6SM BR OVC031 M01/M03 A3030 RMK AO2 SLP271 T10061028
Loading
Personal Weather Stations






























Interactive Weather Map New forecast layout! Learn more

10-Day Weather Forecast

Advertisements
Track Severe Weather on mobile